ARKANSAS RIVER NAVIGATION REPORT
  LITTLE ROCK DISTRICT - U.S. ARMY CORPS OF ENGINEERS
  GENERATED: 02 OCT 2022 @ 23:36
 
  NOTE: These data are not guaranteed to be valid or correct.
        RELEASES AND FLOWS ARE IN THOUSANDS OF CFS
  _____________________________________________________________________________
 
                   1OCT      1OCT       1OCT            2OCT           2OCT
                  @1200     @2400     AVERAGE      LATEST OBSERVED    PRECIP.
                  HOURS     HOURS      FLOW         DATA AND TIME     (7A-7A)
  _____________________________________________________________________________
 
  LD13 HW-ELEV    391.67    391.63                391.78  @  22:00      0.00
  LD13 TW-ELEV    371.45    371.32                371.68  @  22:00
  LD13 RELEASE       .1        .1       1.1         9.9   @  22:00
 
  OZA.L&D HW-ELEV 371.59    371.63                371.85  @  22:00      0.00
  OZA.L&D TW-ELEV 337.67    337.61                337.71  @  22:00
  OZA.L&D RELEASE                                         @  23:36
 
  DRD.L&D HW-ELEV 337.59    337.67                337.64  @  22:00      0.00
  DRD.L&D TW-ELEV 285.01    284.70                284.96  @  22:00
  DRD.L&D RELEASE    .4       0.0       1.3         0.0   @  22:00
 
  LD09 HW-ELEV    284.91    284.69                284.96  @  22:00      0.00
  LD09 TW-ELEV    265.10    265.03                264.98  @  22:00
  LD09 RELEASE      3.1       3.0       3.0         0.0   @  22:00
 
  LD08 HW-ELEV    265.14    265.14                265.09  @  22:00      0.00
  LD08 TW-ELEV    249.12    249.16                249.15  @  22:00
  LD08 RELEASE      2.8       2.8       2.8         0.0   @  22:00
 
  LD07 HW-ELEV    249.13    249.22                249.21  @  22:00      0.00
  LD07 TW-ELEV    230.89    231.19                231.16  @  22:00
  LD07 RELEASE      3.2       1.6       2.4         0.0   @  22:00
 
  LD06 HW-ELEV    231.08    231.26                231.13  @  22:00      0.00
  LD06 TW-ELEV    213.26    213.16                213.22  @  22:00
  LD06 RELEASE      3.1       1.5       1.9         0.0   @  22:00
 
  LD05 HW-ELEV    213.47    213.37                213.39  @  22:00      0.00
  LD05 TW-ELEV    195.69    195.82                196.09  @  22:00
  LD05 RELEASE      4.1       2.5       2.8          .5   @  22:00
 
  LD04 HW-ELEV    195.90    196.04                196.30  @  22:00      0.00
  LD04 TW-ELEV    182.39    182.35                182.31  @  22:00
  LD04 RELEASE      4.0        .1       2.2          .1   @  22:00
 
  LD03 HW-ELEV    182.15    182.14                182.12  @  22:00      0.00
  LD03 TW-ELEV    162.41    162.17                162.07  @  22:00
  LD03 RELEASE      3.4        .1       2.0          .1   @  22:00
 
  L02 HW-ELEV     162.32    162.00                162.08  @  22:00      0.00
 
  D02 HW-ELEV     162.27    161.99                162.00  @  22:00      0.00
  D02 TW-ELEV     123.51    123.51                123.50  @  22:00
  D02 RELEASE                                             @  23:36
 
  L01 TW-ELEV     118.80    118.60                118.82  @  22:00      0.00
 
  MPLD HW-ELEV    117.79    117.47                117.87  @  22:00      0.00	
  MPLD TW-ELEV    110.39    110.25                110.24  @  22:00
 
  WREC DIFF.        1.01      1.13                   .95
  CLARENDON FLOW   12.09     12.23     12.16       12.30  @  22:00
  HELENA STAGE     -1.16     -1.02                  -.80  @  22:00
  CAIRO STAGE       7.76      7.74                  9.97  @  22:00
  _____________________________________________________________________________